• Join FlightAware (Why Join?)
  • Login
  • US Flag 
03:06PM EDT


 

Airport Tracker/Info


-or-


 

Live Flight TrackerFlight Track Log ✈ N35246 ✈ 09-May-2014 ✈ KPMP - KSRQ

Flight Track Log - Related Links

Times and Time Zones

All times are in EDT time to prevent confusion due to time zone crossing. See the N35246 flight status page for this flight to view local times or setup timezone preferences in your user account.

Time Position Orientation Groundspeed Altitude Reporting Facility
EDT Latitude Longitude Course Direction KTS MPH feet Rate Location/Type
05:58PM 26.3192 -80.1614 287° West 124 143 1,900  Level Miami Center
05:59PM 26.3294 -80.1992 287° West 125 144 1,900  Level Miami Center
06:00PM 26.3400 -80.2325 289° West 128 147 1,900  Level Miami Center
06:01PM 26.3544 -80.2686 294° West 120 138 1,900  Level Miami Center
06:02PM 26.3811 -80.2753 347° North 103 119 2,000 60 Climbing Miami Center
06:04PM 26.3681 -80.2486 119° Southeast 91 105 2,100  Climbing Miami Center
06:05PM 26.3617 -80.2203 104° East 98 113 2,100  Level Miami Center
06:06PM 26.3483 -80.1983 124° Southeast 96 110 2,100  Level Miami Center
06:07PM 26.3306 -80.1808 139° Southeast 91 105 2,100 -240 Level Miami Center
06:08PM 26.3128 -80.1653 142° Southeast 81 93 1,700 -360 Descending Miami Center
06:09PM 26.2947 -80.1500 143° Southeast 81 93 1,400 -360 Descending Miami Center
06:10PM 26.2747 -80.1347 146° Southeast 81 93 1,000 -420 Descending Miami Center
06:11PM 26.2567 -80.1239 152° Southeast 84 97 600 -60 Descending Miami Center
06:54PM 26.2586 -80.1042 29° Northeast 86 99 900  Climbing Miami Center
06:55PM 26.9381 -81.5232 314° West  Level FlightAware Approximate
06:55PM 26.2633 -80.1342 280° West 89 102 1,400  Level Miami Center
06:56PM 26.9610 -81.5497 314° West  Level FlightAware Approximate
06:56PM 26.2689 -80.1619 283° West 95 109 1,700  Level Miami Center
06:57PM 26.9839 -81.5761 314° West  Level FlightAware Approximate
06:57PM 26.2767 -80.1911 287° West 92 106 2,000  Level Miami Center
06:58PM 27.0068 -81.6026 314° West  Level FlightAware Approximate
06:58PM 26.2842 -80.2214 285° West 97 112 2,300  Level Miami Center
06:59PM 26.2875 -80.2522 277° West 94 108 2,800 360 Climbing Miami Center
07:00PM 26.2886 -80.2797 273° West 90 104 3,100 300 Climbing Miami Center
07:01PM 26.2933 -80.3081 281° West 94 108 3,500 300 Climbing Miami Center
07:02PM 26.2956 -80.3383 275° West 92 106 3,800 300 Climbing Miami Center
07:03PM 26.2986 -80.3678 277° West 93 107 4,200 360 Climbing Miami Center
07:04PM 26.2989 -80.4000 271° West 94 108 4,600 300 Climbing Miami Center
07:05PM 26.3008 -80.4303 274° West 95 109 4,900 300 Climbing Miami Center
07:06PM 26.3022 -80.4608 273° West 98 113 5,300 240 Climbing Miami Center
07:07PM 26.3056 -80.4933 277° West 98 113 5,500 240 Climbing Miami Center
07:08PM 26.3072 -80.5219 274° West 96 110 5,800 240 Climbing Miami Center
07:09PM 26.3142 -80.5511 285° West 97 112 6,100 120 Climbing Miami Center
07:10PM 26.3247 -80.5856 289° West 111 128 6,100 -60 Level Miami Center
07:11PM 26.3353 -80.6228 288° West 121 139 6,000 -60 Descending Miami Center
07:12PM 26.3469 -80.6597 289° West 124 143 6,000  Level Miami Center
07:13PM 26.3678 -80.6919 306° West 119 137 6,000  Level Miami Center
07:14PM 26.3872 -80.7225 305° West 119 137 6,000  Level Miami Center
07:15PM 26.4050 -80.7522 304° West 119 137 6,000  Level Miami Center
07:16PM 26.4294 -80.7822 312° West 119 137 6,000  Level Miami Center
07:17PM 26.4519 -80.8111 311° West 120 138 6,000  Level Miami Center
07:18PM 26.4722 -80.8403 308° West 120 138 6,000  Level Miami Center
07:19PM 26.4881 -80.8753 297° West 119 137 6,000  Level Miami Center
07:20PM 26.5100 -80.9033 311° West 119 137 6,000  Level Miami Center
07:21PM 26.5306 -80.9319 309° West 119 137 6,100  Climbing Miami Center
07:22PM 26.5550 -80.9628 312° West 121 139 6,000  Descending Miami Center
07:23PM 26.5722 -80.9919 303° West 119 137 6,100  Climbing Miami Center
07:24PM 26.5922 -81.0236 305° West 119 137 6,100 -60 Level Miami Center
07:25PM 26.6147 -81.0539 310° West 119 137 6,000 -120 Descending Miami Center
07:27PM 26.6311 -81.0875 299° West 125 144 5,900 -60 Descending Miami Center
07:28PM 26.6547 -81.1178 311° West 121 139 5,900  Level Miami Center
07:29PM 26.6750 -81.1469 308° West 121 139 6,000  Climbing Miami Center
07:30PM 26.6947 -81.1800 304° West 121 139 5,900  Descending Miami Center
07:31PM 26.7117 -81.2097 303° West 114 131 6,000  Climbing Miami Center
07:32PM 26.7308 -81.2389 306° West 115 132 6,000 -60 Level Miami Center
07:33PM 26.7508 -81.2722 304° West 117 135 5,900  Descending Miami Center
07:34PM 26.7711 -81.3003 309° West 118 136 6,000  Climbing Miami Center
07:35PM 26.7939 -81.3311 310° West 119 137 6,000  Level Miami Center
07:36PM 26.8117 -81.3619 303° West 119 137 6,000  Level Miami Center
07:37PM 26.8328 -81.3931 307° West 116 133 6,000  Level Miami Center
07:38PM 26.8383 -81.4278 280° West 117 135 6,000  Level Miami Center
07:39PM 26.8417 -81.4653 276° West 116 133 6,000 -60 Level Miami Center
07:40PM 26.8464 -81.5000 279° West 116 133 5,900 -60 Descending Miami Center
07:41PM 26.8508 -81.5353 278° West 116 133 5,900  Level Miami Center
07:42PM 26.8556 -81.5736 278° West 116 133 6,000  Climbing Miami Center
07:43PM 26.8617 -81.6089 281° West 116 133 6,000  Level Miami Center
07:44PM 26.8675 -81.6472 280° West 116 133 6,000  Level Miami Center
07:45PM 26.8708 -81.6819 276° West 116 133 6,000 -60 Level Miami Center
07:46PM 26.8781 -81.7197 282° West 116 133 5,900  Descending Miami Center
07:47PM 26.8828 -81.7539 279° West 115 132 6,000  Climbing Miami Center
07:48PM 26.8886 -81.7925 280° West 118 136 5,900  Descending Miami Center
07:49PM 26.8933 -81.8272 279° West 117 135 6,000  Climbing Miami Center
07:50PM 26.8997 -81.8639 281° West 113 130 6,000  Level Miami Center
07:51PM 26.9044 -81.8981 279° West 113 130 6,000  Level Miami Center
07:52PM 26.9092 -81.9311 279° West 109 125 6,000  Level Miami Center
07:53PM 26.9133 -81.9675 277° West 110 127 6,000  Level Miami Center
07:54PM 26.9175 -82.0006 278° West 109 125 6,000  Level Miami Center
07:55PM 26.9411 -82.0269 315° West 114 131 6,000 -60 Level Miami Center
07:56PM 26.9672 -82.0486 324° Northwest 116 133 5,900 -60 Descending Miami Center
07:57PM 26.9919 -82.0756 316° Northwest 116 133 5,900  Level Miami Center
07:58PM 27.0122 -82.0981 315° West 118 136 6,000  Climbing Miami Center
07:59PM 27.0342 -82.1228 315° West 114 131 5,900 -60 Descending Miami Center
08:00PM 27.0625 -82.1536 316° Northwest 115 132 5,900 -240 Level Miami Center
08:01PM 27.0914 -82.1792 322° Northwest 128 147 5,500 -480 Descending Miami Center
08:02PM 27.1175 -82.2089 315° West 131 151 5,000 -540 Descending Miami Center
08:03PM 27.1447 -82.2406 314° West 137 158 4,400 -540 Descending Miami Center
08:04PM 27.1731 -82.2717 316° Northwest 138 159 3,900 -480 Descending Miami Center
08:06PM 27.1986 -82.3047 311° West 138 159 3,500 -480 Descending Miami Center
08:07PM 27.2208 -82.3381 307° West 138 159 3,000 -300 Descending Miami Center
08:08PM 27.2447 -82.3672 313° West 136 157 2,900 -240 Descending Miami Center
08:08PM 27.2667 -82.4000 307° West 116 133 2,600 -600 Descending Tampa TRACON
08:09PM 27.2833 -82.4167 318° Northwest 106 122 1,900 -420 Descending Tampa TRACON
08:10PM 27.3000 -82.4500 299° West 104 120 1,800 -60 Descending Tampa TRACON
08:11PM 27.3167 -82.4667 318° Northwest 106 122 1,800 -180 Level Tampa TRACON
08:12PM 27.3333 -82.4833 318° Northwest 104 120 1,500 -480 Descending Tampa TRACON
08:13PM 27.3500 -82.5167 299° West 98 113 900 -540 Descending Tampa TRACON
08:14PM 27.3667 -82.5333 318° Northwest 90 104 500 -360 Descending Tampa TRACON
08:16PM 27.3953 -82.5547 326° Northwest 97 112 100 -300 Descending Miami Center
08:18PM 27.3954 -82.5544 161° South  Level Estimated